createdAt,value
2019-02-27T00:00:46.779Z,5.63
2019-02-27T00:01:55.174Z,5.27
2019-02-27T00:03:03.388Z,7.13
2019-02-27T00:04:11.370Z,6.87
2019-02-27T00:05:19.525Z,6.93
2019-02-27T00:06:28.077Z,11.47
2019-02-27T00:07:35.909Z,11.93
2019-02-27T00:08:44.430Z,5.67
2019-02-27T00:09:52.567Z,5.13
2019-02-27T00:11:00.782Z,5.40
2019-02-27T00:12:09.269Z,5.40
2019-02-27T00:13:17.750Z,4.90
2019-02-27T00:14:25.990Z,10.00
2019-02-27T00:15:37.784Z,10.27
2019-02-27T00:16:44.748Z,7.73
2019-02-27T00:17:53.444Z,5.60
2019-02-27T00:19:01.763Z,6.20
2019-02-27T00:20:09.964Z,5.43
2019-02-27T00:21:17.860Z,4.13
2019-02-27T00:22:25.687Z,9.90
2019-02-27T00:23:33.933Z,11.07
2019-02-27T00:24:42.237Z,10.47
2019-02-27T00:25:50.335Z,6.67
2019-02-27T00:26:58.538Z,4.83
2019-02-27T00:28:06.831Z,5.73
2019-02-27T00:29:15.277Z,6.40
2019-02-27T00:30:23.374Z,7.33
2019-02-27T00:31:31.634Z,14.90
2019-02-27T00:32:39.681Z,11.43
2019-02-27T00:33:47.918Z,6.63
2019-02-27T00:34:56.025Z,8.27
2019-02-27T00:36:04.267Z,6.10
2019-02-27T00:37:12.155Z,5.77
2019-02-27T00:38:20.123Z,6.80
2019-02-27T00:39:30.858Z,12.00
2019-02-27T00:40:39.300Z,12.70
2019-02-27T00:41:47.863Z,5.93
2019-02-27T00:42:55.779Z,7.10
2019-02-27T00:44:04.282Z,7.27
2019-02-27T00:45:13.334Z,7.23
2019-02-27T00:46:21.548Z,8.70
2019-02-27T00:47:29.904Z,10.87
2019-02-27T00:48:37.888Z,12.53
2019-02-27T00:49:46.068Z,8.33
2019-02-27T00:50:54.060Z,6.00
2019-02-27T00:52:02.272Z,6.03
2019-02-27T00:53:10.403Z,7.07
2019-02-27T00:54:18.253Z,6.33
2019-02-27T00:55:26.203Z,9.03
2019-02-27T00:56:34.693Z,11.67
2019-02-27T00:57:42.794Z,12.07
2019-02-27T00:58:50.987Z,6.10
2019-02-27T00:59:59.257Z,7.43
2019-02-27T01:01:10.061Z,4.33
2019-02-27T01:02:19.923Z,5.13
2019-02-27T01:03:27.232Z,5.77
2019-02-27T01:04:35.665Z,12.20
2019-02-27T01:05:44.178Z,13.27
2019-02-27T01:06:52.293Z,6.10
2019-02-27T01:08:00.260Z,5.53
2019-02-27T01:09:10.304Z,3.87
2019-02-27T01:10:18.406Z,4.97
2019-02-27T01:11:26.375Z,5.43
2019-02-27T01:12:34.255Z,13.93
2019-02-27T01:13:42.199Z,10.30
2019-02-27T01:14:50.283Z,6.47
2019-02-27T01:15:58.534Z,4.53
2019-02-27T01:17:06.680Z,3.10
2019-02-27T01:18:15.026Z,2.77
2019-02-27T01:19:23.084Z,4.20
2019-02-27T01:20:31.594Z,13.83
2019-02-27T01:21:39.764Z,12.50
2019-02-27T01:22:48.148Z,8.40
2019-02-27T01:23:56.240Z,5.50
2019-02-27T01:25:05.219Z,5.60
2019-02-27T01:26:13.559Z,5.17
2019-02-27T01:27:21.831Z,5.33
2019-02-27T01:28:30.125Z,6.30
2019-02-27T01:29:38.330Z,10.47
2019-02-27T01:30:46.462Z,9.57
2019-02-27T01:31:55.027Z,3.97
2019-02-27T01:33:04.864Z,5.57
2019-02-27T01:34:13.378Z,4.03
2019-02-27T01:35:21.570Z,3.33
2019-02-27T01:36:30.110Z,5.50
2019-02-27T01:37:38.267Z,11.83
2019-02-27T01:38:46.288Z,10.70
2019-02-27T01:39:54.786Z,9.63
2019-02-27T01:41:03.054Z,4.90
2019-02-27T01:42:11.365Z,4.27
2019-02-27T01:43:19.405Z,5.23
2019-02-27T01:44:28.065Z,4.50
2019-02-27T01:45:36.398Z,9.87
2019-02-27T01:46:45.975Z,10.03
2019-02-27T01:47:54.053Z,4.13
2019-02-27T01:49:02.703Z,4.60
2019-02-27T01:50:30.715Z,4.50
2019-02-27T01:51:38.870Z,8.23
2019-02-27T01:52:47.092Z,9.93
2019-02-27T01:53:55.244Z,3.73
2019-02-27T01:55:03.318Z,3.80
2019-02-27T01:56:11.708Z,4.10
2019-02-27T01:57:19.972Z,4.73
2019-02-27T01:58:28.413Z,4.00
2019-02-27T01:59:36.564Z,11.53
2019-02-27T02:00:44.976Z,12.50
2019-02-27T02:01:53.175Z,5.10
2019-02-27T02:03:01.575Z,4.37
2019-02-27T02:04:09.617Z,6.77
2019-02-27T02:05:18.799Z,4.07
2019-02-27T02:06:26.907Z,4.97
2019-02-27T02:07:35.172Z,9.63
2019-02-27T02:08:48.015Z,10.77
2019-02-27T02:09:55.255Z,5.20
2019-02-27T02:11:03.272Z,6.40
2019-02-27T02:12:21.564Z,5.40
2019-02-27T02:13:49.223Z,6.93
2019-02-27T02:15:27.043Z,5.67
2019-02-27T02:16:45.693Z,6.70
2019-02-27T02:18:22.206Z,5.00
2019-02-27T02:20:18.841Z,4.53
2019-02-27T02:21:55.953Z,4.73
2019-02-27T02:23:23.270Z,4.13
2019-02-27T02:25:05.518Z,7.60
2019-02-27T02:27:09.723Z,2.87
2019-02-27T02:28:37.476Z,5.53
2019-02-27T02:30:25.486Z,11.00
2019-02-27T02:31:42.529Z,8.13
2019-02-27T02:33:30.285Z,11.67
2019-02-27T02:34:58.624Z,9.97
2019-02-27T02:36:26.866Z,2.63
2019-02-27T02:37:57.625Z,6.43
2019-02-27T02:39:31.103Z,3.43
2019-02-27T02:40:49.868Z,9.97
2019-02-27T02:42:05.342Z,2.73
2019-02-27T02:43:41.636Z,3.40
2019-02-27T02:45:09.564Z,10.33
2019-02-27T02:46:54.386Z,2.90
2019-02-27T02:48:23.523Z,3.07
2019-02-27T02:49:58.504Z,3.20
2019-02-27T02:51:35.002Z,5.30
2019-02-27T02:53:02.547Z,9.63
2019-02-27T02:54:37.569Z,4.13
2019-02-27T02:56:13.720Z,10.87
2019-02-27T02:57:35.838Z,2.67
2019-02-27T02:59:04.837Z,10.40
2019-02-27T03:00:37.838Z,3.20
2019-02-27T03:01:49.303Z,9.10
2019-02-27T03:03:21.136Z,4.57
2019-02-27T03:04:56.431Z,3.13
2019-02-27T03:06:17.827Z,3.80
2019-02-27T03:07:48.298Z,3.77
2019-02-27T03:09:19.078Z,3.93
2019-02-27T03:10:34.715Z,4.00
2019-02-27T03:12:01.892Z,10.60
2019-02-27T03:13:58.391Z,4.47
2019-02-27T03:15:45.751Z,3.70
2019-02-27T03:17:24.240Z,9.57
2019-02-27T03:18:48.747Z,4.37
2019-02-27T03:20:43.720Z,5.97
2019-02-27T03:22:23.562Z,9.47
2019-02-27T03:24:00.193Z,3.43
2019-02-27T03:25:21.491Z,2.20
2019-02-27T03:27:05.979Z,3.93
2019-02-27T03:29:15.553Z,3.43
2019-02-27T03:30:39.381Z,4.40
2019-02-27T03:32:12.888Z,8.57
2019-02-27T03:33:46.225Z,3.50
2019-02-27T03:35:27.937Z,8.43
2019-02-27T03:37:04.155Z,2.50
2019-02-27T03:38:40.850Z,1.57
2019-02-27T03:40:10.645Z,9.17
2019-02-27T03:41:28.188Z,2.77
2019-02-27T03:42:51.864Z,4.03
2019-02-27T03:44:26.494Z,2.47
2019-02-27T03:46:06.201Z,4.83
2019-02-27T03:47:27.393Z,3.17
2019-02-27T03:49:17.855Z,4.63
2019-02-27T03:50:49.431Z,3.30
2019-02-27T03:52:27.033Z,8.83
2019-02-27T03:53:54.318Z,5.10
2019-02-27T03:55:33.093Z,3.63
2019-02-27T03:57:20.217Z,8.00
2019-02-27T03:59:05.583Z,3.53
2019-02-27T04:00:33.671Z,4.97
2019-02-27T04:02:21.292Z,6.20
2019-02-27T04:03:54.155Z,5.93
2019-02-27T04:05:42.062Z,4.17
2019-02-27T04:07:17.689Z,10.03
2019-02-27T04:08:45.206Z,3.63
2019-02-27T04:09:55.326Z,10.67
2019-02-27T04:11:05.873Z,5.23
2019-02-27T04:12:16.110Z,5.17
2019-02-27T04:13:26.766Z,4.57
2019-02-27T04:14:40.810Z,7.93
2019-02-27T04:15:47.196Z,13.37
2019-02-27T04:16:55.666Z,13.90
2019-02-27T04:18:01.948Z,6.53
2019-02-27T04:19:10.623Z,5.57
2019-02-27T04:20:19.018Z,6.03
2019-02-27T04:21:27.214Z,7.33
2019-02-27T04:22:37.491Z,7.80
2019-02-27T04:23:49.025Z,14.37
2019-02-27T04:24:56.862Z,15.30
2019-02-27T04:26:06.583Z,9.80
2019-02-27T04:27:19.988Z,7.77
2019-02-27T04:28:29.517Z,15.57
2019-02-27T04:29:34.500Z,74.47
2019-02-27T04:30:42.889Z,48.83
2019-02-27T04:31:50.979Z,18.70
2019-02-27T04:32:58.967Z,19.13
2019-02-27T04:34:07.364Z,8.30
2019-02-27T04:35:15.590Z,8.80
2019-02-27T04:36:24.064Z,11.40
2019-02-27T04:37:32.463Z,14.27
2019-02-27T04:38:41.039Z,12.83
2019-02-27T04:39:49.720Z,25.37
2019-02-27T04:40:57.929Z,18.73
2019-02-27T04:42:06.438Z,6.43
2019-02-27T04:43:14.485Z,7.33
2019-02-27T04:44:22.922Z,7.23
2019-02-27T04:45:31.239Z,7.33
2019-02-27T04:46:40.268Z,5.77
2019-02-27T04:47:48.918Z,15.27
2019-02-27T04:48:57.430Z,15.77
2019-02-27T04:50:10.886Z,4.83
2019-02-27T04:51:17.723Z,3.43
2019-02-27T04:52:26.126Z,6.10
2019-02-27T04:53:34.296Z,4.77
2019-02-27T04:54:42.719Z,18.13
2019-02-27T04:55:51.330Z,105.90
2019-02-27T04:57:00.028Z,136.57
2019-02-27T04:58:09.073Z,112.67
2019-02-27T04:59:18.754Z,136.43
2019-02-27T05:00:28.601Z,120.37
2019-02-27T05:01:37.454Z,106.80
2019-02-27T05:02:45.843Z,126.97
2019-02-27T05:03:54.392Z,146.10
2019-02-27T05:05:02.709Z,141.00
2019-02-27T05:06:12.061Z,131.50
2019-02-27T05:07:21.210Z,127.03
2019-02-27T05:08:29.504Z,129.13
2019-02-27T05:09:37.878Z,122.20
2019-02-27T05:10:45.929Z,127.53
2019-02-27T05:11:54.169Z,139.70
2019-02-27T05:13:02.533Z,137.27
2019-02-27T05:14:11.083Z,125.23
2019-02-27T05:15:19.133Z,122.40
2019-02-27T05:16:27.271Z,118.93
2019-02-27T05:17:35.575Z,119.00
2019-02-27T05:18:44.149Z,112.30
2019-02-27T05:19:52.470Z,128.47
2019-02-27T05:21:00.891Z,129.93
2019-02-27T05:22:09.274Z,127.97
2019-02-27T05:23:17.374Z,131.70
2019-02-27T05:24:25.696Z,122.53
2019-02-27T05:25:33.914Z,132.70
2019-02-27T05:26:42.134Z,124.97
2019-02-27T05:27:51.004Z,152.70
2019-02-27T05:28:59.398Z,153.27
2019-02-27T05:30:12.309Z,142.67
2019-02-27T05:31:21.312Z,126.43
2019-02-27T05:32:29.835Z,114.83
2019-02-27T05:33:39.931Z,118.83
2019-02-27T05:34:49.774Z,117.17
2019-02-27T05:35:58.625Z,141.17
2019-02-27T05:37:06.828Z,138.50
2019-02-27T05:38:15.314Z,115.27
2019-02-27T05:39:23.614Z,124.93
2019-02-27T05:40:32.032Z,126.77
2019-02-27T05:41:40.696Z,115.83
2019-02-27T05:42:48.985Z,125.20
2019-02-27T05:43:57.042Z,128.37
2019-02-27T05:45:08.368Z,121.33
2019-02-27T05:46:16.769Z,112.43
2019-02-27T05:47:25.137Z,110.57
2019-02-27T05:48:33.510Z,131.20
2019-02-27T05:49:41.763Z,122.80
2019-02-27T05:50:50.301Z,136.53
2019-02-27T05:51:58.397Z,163.73
2019-02-27T05:53:07.162Z,158.63
2019-02-27T05:54:15.407Z,155.00
2019-02-27T05:55:23.708Z,119.77
2019-02-27T05:56:32.139Z,133.63
2019-02-27T05:57:40.540Z,116.17
2019-02-27T05:58:49.444Z,105.67
2019-02-27T06:00:02.252Z,127.97
2019-02-27T06:01:08.032Z,117.20
2019-02-27T06:02:16.347Z,93.87
2019-02-27T06:03:24.435Z,130.10
2019-02-27T06:04:34.538Z,132.37
2019-02-27T06:05:49.393Z,135.97
2019-02-27T06:06:52.925Z,134.10
2019-02-27T06:08:02.230Z,139.10
2019-02-27T06:09:11.421Z,115.80
2019-02-27T06:10:20.802Z,123.10
2019-02-27T06:11:32.980Z,108.37
2019-02-27T06:12:40.735Z,123.37
2019-02-27T06:13:49.270Z,121.67
2019-02-27T06:14:57.904Z,149.00
2019-02-27T06:16:09.082Z,146.13
2019-02-27T06:17:16.752Z,116.77
2019-02-27T06:18:25.257Z,123.03
2019-02-27T06:19:34.354Z,110.57
2019-02-27T06:20:42.785Z,124.53
2019-02-27T06:21:51.049Z,136.77
2019-02-27T06:23:04.091Z,158.47
2019-02-27T06:24:12.467Z,144.97
2019-02-27T06:25:23.404Z,119.70
2019-02-27T06:26:32.387Z,144.43
2019-02-27T06:27:40.343Z,134.03
2019-02-27T06:28:48.829Z,131.33
2019-02-27T06:29:57.828Z,164.07
2019-02-27T06:31:07.044Z,153.93
2019-02-27T06:32:15.902Z,143.63
2019-02-27T06:33:24.394Z,150.77
2019-02-27T06:34:32.752Z,153.17
2019-02-27T06:35:41.284Z,166.30
2019-02-27T06:36:49.693Z,154.17
2019-02-27T06:37:58.057Z,182.10
2019-02-27T06:39:08.787Z,181.83
2019-02-27T06:40:18.687Z,159.87
2019-02-27T06:41:27.070Z,166.37
2019-02-27T06:42:35.367Z,150.63
2019-02-27T06:43:43.634Z,158.10
2019-02-27T06:44:53.526Z,169.17
2019-02-27T06:46:02.271Z,180.00
2019-02-27T06:47:10.574Z,168.47
2019-02-27T06:48:19.391Z,158.47
2019-02-27T06:49:27.832Z,155.50
2019-02-27T06:50:36.196Z,149.60
2019-02-27T06:51:44.648Z,138.80
2019-02-27T06:52:52.956Z,150.77
2019-02-27T06:54:01.397Z,146.90
2019-02-27T06:55:13.423Z,168.07
2019-02-27T06:56:21.837Z,159.57
2019-02-27T06:57:30.235Z,158.83
2019-02-27T06:58:38.547Z,169.60
2019-02-27T06:59:46.901Z,168.40
2019-02-27T07:00:55.318Z,156.20
2019-02-27T07:02:03.735Z,20.03
2019-02-27T07:03:12.426Z,182.13
2019-02-27T07:04:20.727Z,165.33
2019-02-27T07:05:29.099Z,165.17
2019-02-27T07:06:37.427Z,165.73
2019-02-27T07:07:45.578Z,169.47
2019-02-27T07:08:54.042Z,170.17
2019-02-27T07:10:02.196Z,184.03
2019-02-27T07:11:11.263Z,183.63
2019-02-27T07:12:21.905Z,170.07
2019-02-27T07:13:30.135Z,168.13
2019-02-27T07:14:39.273Z,175.50
2019-02-27T07:15:49.268Z,165.70
2019-02-27T07:16:58.489Z,175.93
2019-02-27T07:18:06.931Z,179.87
2019-02-27T07:19:15.854Z,139.93
2019-02-27T07:20:25.427Z,129.10
2019-02-27T07:21:34.096Z,130.53
2019-02-27T07:22:45.474Z,133.17
2019-02-27T07:23:57.572Z,149.17
2019-02-27T07:25:06.347Z,164.43
2019-02-27T07:26:13.213Z,159.23
2019-02-27T07:27:23.252Z,154.50
2019-02-27T07:28:31.958Z,152.20
2019-02-27T07:29:40.530Z,133.67
2019-02-27T07:30:48.967Z,106.87
2019-02-27T07:31:57.515Z,105.40
2019-02-27T07:33:06.727Z,140.10
2019-02-27T07:34:16.273Z,121.00
2019-02-27T07:35:26.380Z,101.20
2019-02-27T07:36:35.999Z,139.50
2019-02-27T07:37:48.082Z,134.17
2019-02-27T07:38:57.470Z,148.23
2019-02-27T07:40:10.813Z,154.87
2019-02-27T07:41:20.990Z,151.73
2019-02-27T07:42:31.876Z,160.90
2019-02-27T07:43:39.654Z,149.17
2019-02-27T07:44:48.493Z,128.80
2019-02-27T07:45:56.973Z,94.17
2019-02-27T07:47:05.604Z,134.50
2019-02-27T07:48:14.293Z,123.10
2019-02-27T07:49:23.141Z,124.20
2019-02-27T07:50:32.653Z,120.67
2019-02-27T07:51:41.309Z,112.47
2019-02-27T07:52:51.990Z,87.47
2019-02-27T07:54:00.503Z,104.80
2019-02-27T07:55:21.014Z,64.70
2019-02-27T07:56:23.500Z,11.10
2019-02-27T07:57:32.511Z,6.77
2019-02-27T07:58:40.846Z,19.07
2019-02-27T07:59:49.163Z,16.83
2019-02-27T08:00:58.135Z,8.47
2019-02-27T08:02:06.599Z,15.30
2019-02-27T08:03:15.191Z,15.50
2019-02-27T08:04:23.602Z,6.13
2019-02-27T08:05:32.305Z,8.83
2019-02-27T08:06:41.560Z,7.10
2019-02-27T08:07:50.089Z,5.90
2019-02-27T08:08:58.921Z,8.63
2019-02-27T08:10:18.158Z,19.63
2019-02-27T08:11:26.670Z,6.03
2019-02-27T08:12:36.328Z,5.33
2019-02-27T08:13:44.844Z,7.13
2019-02-27T08:14:53.119Z,4.93
2019-02-27T08:16:01.515Z,8.23
2019-02-27T08:17:17.284Z,12.50
2019-02-27T08:18:29.527Z,7.70
2019-02-27T08:19:30.020Z,7.10
2019-02-27T08:20:38.469Z,4.67
2019-02-27T08:21:46.751Z,5.53
2019-02-27T08:22:54.829Z,5.23
2019-02-27T08:24:06.695Z,9.00
2019-02-27T08:25:16.811Z,14.30
2019-02-27T08:26:25.858Z,7.50
2019-02-27T08:27:34.989Z,4.30
2019-02-27T08:28:43.262Z,5.27
2019-02-27T08:29:51.432Z,3.50
2019-02-27T08:30:59.861Z,6.53
2019-02-27T08:32:08.605Z,16.67
2019-02-27T08:33:16.730Z,69.30
2019-02-27T08:34:25.040Z,84.77
2019-02-27T08:35:33.418Z,35.57
2019-02-27T08:36:41.921Z,8.83
2019-02-27T08:37:50.893Z,7.53
2019-02-27T08:38:59.317Z,7.87
2019-02-27T08:40:13.935Z,67.13
2019-02-27T08:41:22.589Z,100.43
2019-02-27T08:42:31.194Z,117.77
2019-02-27T08:43:41.266Z,136.47
2019-02-27T08:44:49.452Z,44.93
2019-02-27T08:46:02.157Z,42.77
2019-02-27T08:47:10.237Z,16.27
2019-02-27T08:48:18.172Z,15.03
2019-02-27T08:49:26.942Z,7.63
2019-02-27T08:50:35.146Z,5.90
2019-02-27T08:51:43.445Z,6.83
2019-02-27T08:52:52.170Z,39.93
2019-02-27T08:54:00.627Z,27.03
2019-02-27T08:55:19.100Z,42.30
2019-02-27T08:56:26.021Z,19.27
2019-02-27T08:57:34.475Z,5.93
2019-02-27T08:58:43.571Z,8.97
2019-02-27T08:59:52.407Z,9.30
2019-02-27T09:01:00.992Z,9.27
2019-02-27T09:02:11.003Z,70.40
2019-02-27T09:03:20.588Z,63.33
2019-02-27T09:04:29.481Z,73.87
2019-02-27T09:05:38.038Z,124.23
2019-02-27T09:06:46.565Z,137.73
2019-02-27T09:07:55.127Z,144.07
2019-02-27T09:09:04.941Z,118.50
2019-02-27T09:10:26.698Z,101.60
2019-02-27T09:11:37.188Z,129.50
2019-02-27T09:12:48.155Z,162.97
2019-02-27T09:13:55.426Z,172.27
2019-02-27T09:15:05.224Z,143.90
2019-02-27T09:16:13.482Z,174.13
2019-02-27T09:17:26.881Z,181.37
2019-02-27T09:18:35.624Z,158.30
2019-02-27T09:19:45.461Z,170.20
2019-02-27T09:20:53.540Z,170.83
2019-02-27T09:22:02.522Z,165.70
2019-02-27T09:23:11.413Z,181.57
2019-02-27T09:24:19.696Z,188.13
2019-02-27T09:25:28.404Z,170.83
2019-02-27T09:26:37.018Z,163.20
2019-02-27T09:27:45.263Z,126.87
2019-02-27T09:28:53.806Z,98.47
2019-02-27T09:30:02.792Z,88.30
2019-02-27T09:31:12.167Z,176.20
2019-02-27T09:32:20.901Z,192.83
2019-02-27T09:33:29.218Z,174.17
2019-02-27T09:34:37.466Z,169.77
2019-02-27T09:35:46.396Z,165.00
2019-02-27T09:36:54.902Z,171.33
2019-02-27T09:38:03.541Z,177.73
2019-02-27T09:39:12.148Z,185.60
2019-02-27T09:40:30.613Z,186.97
2019-02-27T09:41:38.742Z,171.30
2019-02-27T09:42:50.263Z,175.33
2019-02-27T09:43:58.615Z,168.77
2019-02-27T09:45:17.381Z,175.90
2019-02-27T09:46:25.795Z,174.37
2019-02-27T09:47:34.171Z,167.30
2019-02-27T09:48:42.711Z,167.80
2019-02-27T09:49:51.125Z,174.60
2019-02-27T09:50:59.904Z,168.00
2019-02-27T09:52:08.449Z,174.23
2019-02-27T09:53:17.205Z,165.00
2019-02-27T09:54:25.646Z,157.27
2019-02-27T09:55:33.904Z,171.20
2019-02-27T09:56:42.734Z,170.03
2019-02-27T09:57:51.083Z,170.83
2019-02-27T09:58:59.135Z,155.37
2019-02-27T10:00:29.507Z,174.33
2019-02-27T10:01:37.675Z,170.53
2019-02-27T10:02:46.301Z,161.47
2019-02-27T10:03:55.568Z,168.93
2019-02-27T10:05:03.970Z,177.93
2019-02-27T10:06:12.333Z,186.67
2019-02-27T10:07:20.540Z,183.10
2019-02-27T10:08:28.894Z,160.50
2019-02-27T10:09:37.022Z,170.50
2019-02-27T10:10:46.092Z,158.53
2019-02-27T10:11:54.288Z,140.03
2019-02-27T10:13:03.273Z,155.23
2019-02-27T10:14:14.140Z,159.00
2019-02-27T10:15:22.581Z,157.77
2019-02-27T10:16:34.636Z,136.00
2019-02-27T10:17:43.648Z,142.37
2019-02-27T10:18:54.793Z,115.17
2019-02-27T10:20:02.887Z,109.83
2019-02-27T10:21:12.124Z,142.77
2019-02-27T10:22:21.178Z,179.97
2019-02-27T10:23:31.159Z,163.87
2019-02-27T10:24:39.577Z,128.90
2019-02-27T10:25:49.919Z,150.07
2019-02-27T10:26:58.472Z,125.80
2019-02-27T10:28:06.976Z,132.80
2019-02-27T10:29:15.256Z,139.67
2019-02-27T10:30:23.983Z,125.37
2019-02-27T10:31:32.136Z,96.40
2019-02-27T10:32:40.274Z,44.87
2019-02-27T10:33:48.328Z,32.57
2019-02-27T10:34:58.315Z,127.33
2019-02-27T10:36:06.221Z,165.93
2019-02-27T10:37:18.247Z,182.63
2019-02-27T10:38:26.111Z,145.13
2019-02-27T10:39:36.870Z,138.20
2019-02-27T10:40:45.984Z,174.63
2019-02-27T10:41:53.753Z,36.23
2019-02-27T10:43:01.860Z,173.77
2019-02-27T10:44:09.961Z,161.37
2019-02-27T10:45:18.553Z,192.33
2019-02-27T10:46:26.969Z,184.67
2019-02-27T10:47:36.565Z,159.37
2019-02-27T10:48:46.962Z,164.03
2019-02-27T10:49:54.840Z,165.03
2019-02-27T10:51:03.049Z,147.97
2019-02-27T10:52:11.229Z,141.67
2019-02-27T10:53:19.439Z,161.07
2019-02-27T10:54:27.588Z,162.30
2019-02-27T10:55:35.637Z,136.00
2019-02-27T10:56:43.913Z,115.33
2019-02-27T10:57:52.495Z,120.77
2019-02-27T10:59:00.718Z,72.47
2019-02-27T11:00:34.067Z,98.40
2019-02-27T11:01:42.081Z,137.27
2019-02-27T11:02:52.450Z,160.80
2019-02-27T11:04:03.180Z,171.67
2019-02-27T11:05:10.627Z,152.87
2019-02-27T11:06:18.542Z,137.17
2019-02-27T11:07:26.769Z,160.33
2019-02-27T11:08:35.024Z,163.93
2019-02-27T11:09:43.373Z,166.03
2019-02-27T11:10:51.558Z,169.90
2019-02-27T11:11:59.572Z,161.10
2019-02-27T11:13:07.875Z,157.23
2019-02-27T11:14:15.970Z,156.70
2019-02-27T11:15:25.133Z,136.83
2019-02-27T11:16:33.356Z,117.37
2019-02-27T11:17:41.352Z,112.37
2019-02-27T11:18:50.063Z,141.97
2019-02-27T11:19:58.231Z,116.60
2019-02-27T11:21:06.512Z,106.37
2019-02-27T11:22:14.632Z,126.23
2019-02-27T11:23:22.582Z,157.70
2019-02-27T11:24:30.919Z,125.43
2019-02-27T11:25:38.979Z,94.43
2019-02-27T11:26:47.220Z,130.47
2019-02-27T11:27:55.425Z,145.97
2019-02-27T11:29:04.358Z,146.10
2019-02-27T11:30:16.254Z,146.93
2019-02-27T11:31:24.205Z,165.13
2019-02-27T11:32:32.911Z,173.60
2019-02-27T11:33:41.147Z,162.03
2019-02-27T11:34:49.686Z,150.37
2019-02-27T11:35:57.715Z,160.93
2019-02-27T11:37:06.222Z,159.60
2019-02-27T11:38:14.286Z,158.53
2019-02-27T11:39:22.356Z,144.33
2019-02-27T11:40:30.838Z,150.73
2019-02-27T11:41:39.016Z,128.07
2019-02-27T11:42:47.154Z,144.73
2019-02-27T11:43:55.313Z,101.60
2019-02-27T11:45:03.640Z,58.70
2019-02-27T11:46:12.021Z,93.47
2019-02-27T11:47:20.013Z,19.13
2019-02-27T11:48:28.062Z,21.43
2019-02-27T11:49:38.779Z,28.60
2019-02-27T11:50:46.562Z,49.83
2019-02-27T11:51:56.932Z,20.73
2019-02-27T11:53:04.999Z,7.13
2019-02-27T11:54:14.524Z,9.20
2019-02-27T11:55:24.526Z,20.17
2019-02-27T11:56:32.639Z,22.17
2019-02-27T11:57:40.911Z,7.83
2019-02-27T11:58:49.291Z,7.60
2019-02-27T11:59:57.756Z,7.40
2019-02-27T12:01:07.057Z,8.73
2019-02-27T12:02:15.408Z,34.87
2019-02-27T12:03:24.123Z,26.47
2019-02-27T12:04:32.258Z,28.17
2019-02-27T12:05:40.319Z,16.17
2019-02-27T12:06:48.383Z,9.30
2019-02-27T12:07:56.959Z,8.17
2019-02-27T12:09:06.854Z,16.97
2019-02-27T12:10:21.816Z,49.47
2019-02-27T12:11:30.237Z,95.67
2019-02-27T12:12:39.256Z,11.67
2019-02-27T12:13:47.260Z,10.17
2019-02-27T12:14:55.369Z,7.37
2019-02-27T12:16:03.688Z,7.70
2019-02-27T12:17:11.676Z,6.33
2019-02-27T12:18:20.970Z,11.57
2019-02-27T12:19:29.108Z,18.77
2019-02-27T12:20:37.309Z,9.10
2019-02-27T12:21:45.693Z,7.20
2019-02-27T12:22:54.018Z,6.73
2019-02-27T12:24:02.125Z,93.80
2019-02-27T12:25:15.961Z,20.50
2019-02-27T12:26:23.935Z,37.20
2019-02-27T12:27:48.273Z,17.93
2019-02-27T12:28:41.986Z,10.37
2019-02-27T12:29:50.128Z,7.23
2019-02-27T12:30:58.196Z,22.77
2019-02-27T12:32:06.239Z,7.93
2019-02-27T12:33:14.469Z,8.23
2019-02-27T12:34:22.915Z,15.50
2019-02-27T12:35:38.200Z,14.30
2019-02-27T12:36:46.261Z,5.83
2019-02-27T12:37:54.778Z,7.13
2019-02-27T12:39:02.881Z,6.90
2019-02-27T12:40:17.803Z,4.50
2019-02-27T12:41:25.772Z,12.87
2019-02-27T12:42:37.257Z,10.13
2019-02-27T12:43:44.159Z,3.93
2019-02-27T12:44:54.597Z,6.73
2019-02-27T12:46:01.848Z,6.40
2019-02-27T12:47:09.861Z,4.23
2019-02-27T12:48:18.124Z,6.10
2019-02-27T12:49:26.453Z,12.00
2019-02-27T12:50:35.261Z,11.67
2019-02-27T12:51:43.267Z,5.80
2019-02-27T12:52:51.750Z,4.87
2019-02-27T12:54:00.218Z,5.33
2019-02-27T12:55:09.031Z,4.30
2019-02-27T12:56:17.071Z,5.03
2019-02-27T12:57:25.125Z,11.33
2019-02-27T12:58:33.217Z,12.03
2019-02-27T12:59:42.338Z,5.57
2019-02-27T13:00:50.501Z,5.30
2019-02-27T13:02:07.952Z,4.30
2019-02-27T13:03:09.508Z,6.13
2019-02-27T13:04:19.928Z,5.27
2019-02-27T13:05:27.574Z,15.00
2019-02-27T13:06:37.360Z,11.87
2019-02-27T13:07:45.569Z,5.90
2019-02-27T13:08:55.800Z,7.40
2019-02-27T13:10:05.640Z,6.47
2019-02-27T13:11:13.753Z,7.53
2019-02-27T13:12:22.204Z,8.40
2019-02-27T13:13:30.683Z,13.73
2019-02-27T13:14:38.889Z,12.33
2019-02-27T13:15:47.319Z,7.40
2019-02-27T13:16:55.499Z,11.60
2019-02-27T13:18:03.676Z,7.70
2019-02-27T13:19:12.097Z,7.50
2019-02-27T13:20:27.058Z,9.07
2019-02-27T13:21:35.378Z,20.27
2019-02-27T13:22:43.602Z,12.73
2019-02-27T13:23:51.856Z,20.73
2019-02-27T13:25:00.347Z,12.43
2019-02-27T13:26:08.673Z,11.17
2019-02-27T13:27:16.903Z,8.83
2019-02-27T13:28:25.163Z,15.83
2019-02-27T13:29:33.223Z,17.23
2019-02-27T13:30:42.159Z,12.80
2019-02-27T13:31:51.489Z,10.73
2019-02-27T13:33:01.150Z,9.93
2019-02-27T13:34:11.297Z,11.23
2019-02-27T13:35:23.118Z,23.97
2019-02-27T13:36:31.538Z,100.50
2019-02-27T13:37:43.772Z,185.30
2019-02-27T13:38:52.190Z,172.47
2019-02-27T13:40:01.324Z,172.40
2019-02-27T13:41:10.562Z,170.77
2019-02-27T13:42:19.381Z,167.60
2019-02-27T13:43:27.820Z,178.60
2019-02-27T13:44:35.856Z,188.60
2019-02-27T13:45:47.384Z,175.70
2019-02-27T13:46:57.024Z,158.63
2019-02-27T13:48:05.988Z,143.53
2019-02-27T13:49:14.664Z,153.10
2019-02-27T13:50:26.523Z,143.43
2019-02-27T13:51:40.339Z,166.00
2019-02-27T13:52:50.737Z,159.37
2019-02-27T13:54:00.662Z,163.13
2019-02-27T13:55:13.099Z,177.17
2019-02-27T13:56:21.156Z,174.57
2019-02-27T13:57:29.485Z,185.93
2019-02-27T13:58:37.916Z,191.93
2019-02-27T13:59:45.985Z,172.27
2019-02-27T14:00:54.591Z,159.07
2019-02-27T14:02:04.024Z,171.17
2019-02-27T14:03:13.403Z,171.57
2019-02-27T14:04:22.756Z,167.50
2019-02-27T14:05:35.112Z,183.43
2019-02-27T14:06:43.609Z,135.43
2019-02-27T14:07:50.645Z,111.30
2019-02-27T14:08:58.674Z,135.13
2019-02-27T14:10:23.140Z,70.70
2019-02-27T14:11:31.418Z,138.93
2019-02-27T14:12:39.832Z,162.83
2019-02-27T14:13:48.106Z,172.00
2019-02-27T14:14:56.498Z,174.50
2019-02-27T14:16:04.849Z,174.27
2019-02-27T14:17:12.853Z,160.13
2019-02-27T14:18:21.096Z,124.60
2019-02-27T14:19:29.182Z,166.90
2019-02-27T14:20:37.457Z,176.30
2019-02-27T14:21:45.633Z,176.23
2019-02-27T14:22:54.649Z,174.60
2019-02-27T14:24:02.887Z,173.33
2019-02-27T14:25:15.482Z,146.70
2019-02-27T14:26:23.682Z,140.43
2019-02-27T14:27:32.078Z,157.73
2019-02-27T14:28:40.252Z,135.87
2019-02-27T14:29:48.325Z,106.67
2019-02-27T14:30:56.549Z,112.83
2019-02-27T14:32:04.850Z,121.40
2019-02-27T14:33:13.197Z,157.80
2019-02-27T14:34:21.359Z,170.93
2019-02-27T14:35:35.300Z,182.80
2019-02-27T14:36:42.547Z,189.80
2019-02-27T14:37:51.017Z,174.83
2019-02-27T14:38:59.299Z,180.60
2019-02-27T14:40:20.077Z,182.17
2019-02-27T14:41:28.083Z,183.30
2019-02-27T14:42:36.359Z,190.10
2019-02-27T14:43:45.028Z,190.43
2019-02-27T14:44:53.082Z,177.10
2019-02-27T14:46:01.216Z,172.97
2019-02-27T14:47:10.077Z,176.50
2019-02-27T14:48:21.432Z,172.63
2019-02-27T14:49:28.386Z,161.00
2019-02-27T14:50:37.150Z,194.43
2019-02-27T14:51:46.165Z,191.97
2019-02-27T14:52:54.354Z,167.27
2019-02-27T14:54:02.964Z,152.33
2019-02-27T14:55:14.913Z,151.30
2019-02-27T14:56:24.758Z,168.37
2019-02-27T14:57:33.253Z,176.40
2019-02-27T14:58:41.643Z,173.03
2019-02-27T14:59:50.938Z,152.30
2019-02-27T15:00:59.694Z,165.77
2019-02-27T15:02:08.934Z,170.70
2019-02-27T15:03:18.788Z,162.23
2019-02-27T15:04:28.897Z,164.63
2019-02-27T15:05:43.124Z,165.73
2019-02-27T15:06:50.422Z,159.10
2019-02-27T15:07:59.994Z,145.33
2019-02-27T15:09:08.624Z,149.20
2019-02-27T15:10:22.194Z,157.63
2019-02-27T15:11:31.147Z,138.97
2019-02-27T15:12:39.487Z,160.87
2019-02-27T15:13:48.087Z,139.83
2019-02-27T15:14:57.105Z,153.23
2019-02-27T15:16:06.116Z,159.60
2019-02-27T15:17:14.416Z,157.90